createdAt,value
2022-09-12T00:00:46.306Z,12.19
2022-09-12T00:03:17.830Z,12.19
2022-09-12T00:05:50.123Z,12.05
2022-09-12T00:08:21.610Z,12.16
2022-09-12T00:10:53.489Z,12.27
2022-09-12T00:13:25.862Z,12.35
2022-09-12T00:15:57.247Z,12.45
2022-09-12T00:18:30.379Z,12.44
2022-09-12T00:21:06.242Z,12.41
2022-09-12T00:23:37.822Z,12.22
2022-09-12T00:26:10.241Z,12.22
2022-09-12T00:28:43.332Z,12.12
2022-09-12T00:31:18.195Z,12.13
2022-09-12T00:33:49.844Z,12.06
2022-09-12T00:36:24.030Z,12.03
2022-09-12T00:38:56.128Z,11.90
2022-09-12T00:41:30.407Z,11.95
2022-09-12T00:44:03.998Z,12.11
2022-09-12T00:46:41.836Z,11.96
2022-09-12T00:49:17.315Z,12.09
2022-09-12T00:51:52.576Z,12.14
2022-09-12T00:54:28.318Z,11.98
2022-09-12T00:57:03.504Z,11.99
2022-09-12T00:59:40.948Z,12.01
2022-09-12T01:02:12.711Z,11.94
2022-09-12T01:04:45.872Z,11.93
2022-09-12T01:07:17.509Z,11.95
2022-09-12T01:09:49.592Z,11.78
2022-09-12T01:12:21.058Z,11.76
2022-09-12T01:14:52.703Z,11.72
2022-09-12T01:17:26.856Z,11.90
2022-09-12T01:20:28.801Z,11.86
2022-09-12T01:23:37.388Z,11.63
2022-09-12T01:26:25.188Z,11.66
2022-09-12T01:29:14.767Z,11.57
2022-09-12T01:31:53.089Z,11.55
2022-09-12T01:34:30.601Z,11.55
2022-09-12T01:37:10.480Z,11.45
2022-09-12T01:39:51.354Z,11.44
2022-09-12T01:42:28.550Z,11.44
2022-09-12T01:45:06.830Z,11.63
2022-09-12T01:47:43.635Z,11.49
2022-09-12T01:50:20.306Z,11.40
2022-09-12T01:52:55.430Z,11.45
2022-09-12T01:55:31.071Z,11.35
2022-09-12T01:58:09.605Z,11.27
2022-09-12T02:00:46.292Z,11.42
2022-09-12T02:03:20.526Z,11.57
2022-09-12T02:05:55.134Z,11.43
2022-09-12T02:08:30.764Z,11.38
2022-09-12T02:11:08.381Z,11.35
2022-09-12T02:13:43.503Z,11.25
2022-09-12T02:16:20.622Z,11.35
2022-09-12T02:18:57.814Z,11.40
2022-09-12T02:21:33.320Z,11.43
2022-09-12T02:24:10.241Z,11.39
2022-09-12T02:26:48.822Z,11.37
2022-09-12T02:29:21.114Z,11.42
2022-09-12T02:31:56.801Z,11.40
2022-09-12T02:34:41.330Z,11.27
2022-09-12T02:37:20.655Z,11.20
2022-09-12T02:39:53.802Z,11.34
2022-09-12T02:42:26.205Z,11.23
2022-09-12T02:44:58.901Z,11.19
2022-09-12T02:47:36.082Z,11.08
2022-09-12T02:50:09.635Z,10.95
2022-09-12T02:52:42.322Z,10.90
2022-09-12T02:55:15.459Z,11.14
2022-09-12T02:57:46.851Z,11.14
2022-09-12T03:00:19.147Z,11.14
2022-09-12T03:03:18.802Z,11.21
2022-09-12T03:05:57.404Z,11.32
2022-09-12T03:09:01.729Z,11.33
2022-09-12T03:11:57.165Z,11.30
2022-09-12T03:14:37.668Z,11.29
2022-09-12T03:17:19.575Z,11.24
2022-09-12T03:20:00.284Z,11.17
2022-09-12T03:22:40.297Z,11.15
2022-09-12T03:25:17.831Z,11.30
2022-09-12T03:27:58.701Z,11.51
2022-09-12T03:30:33.989Z,11.47
2022-09-12T03:33:05.420Z,11.27
2022-09-12T03:35:36.757Z,11.30
2022-09-12T03:38:08.511Z,11.33
2022-09-12T03:40:40.519Z,11.25
2022-09-12T03:43:12.824Z,11.32
2022-09-12T03:45:44.333Z,11.41
2022-09-12T03:48:15.662Z,11.30
2022-09-12T03:50:46.872Z,11.16
2022-09-12T03:53:18.543Z,11.16
2022-09-12T03:55:49.903Z,11.25
2022-09-12T03:58:21.323Z,11.26
2022-09-12T04:00:53.147Z,11.30
2022-09-12T04:03:24.902Z,11.33
2022-09-12T04:05:59.028Z,11.35
2022-09-12T04:08:30.395Z,11.30
2022-09-12T04:11:07.979Z,11.22
2022-09-12T04:13:40.252Z,11.24
2022-09-12T04:16:13.363Z,11.27
2022-09-12T04:18:46.223Z,11.30
2022-09-12T04:21:19.680Z,11.21
2022-09-12T04:23:51.327Z,11.22
2022-09-12T04:26:23.793Z,11.22
2022-09-12T04:28:57.956Z,11.26
2022-09-12T04:31:30.552Z,11.36
2022-09-12T04:34:02.877Z,11.39
2022-09-12T04:36:35.080Z,11.34
2022-09-12T04:39:08.078Z,11.29
2022-09-12T04:41:41.500Z,11.22
2022-09-12T04:44:15.906Z,11.33
2022-09-12T04:46:49.129Z,11.45
2022-09-12T04:49:20.806Z,11.50
2022-09-12T04:51:55.142Z,11.47
2022-09-12T04:54:27.362Z,11.44
2022-09-12T04:56:59.909Z,11.52
2022-09-12T04:59:31.303Z,11.68
2022-09-12T05:02:02.946Z,11.66
2022-09-12T05:04:35.216Z,11.62
2022-09-12T05:07:07.293Z,11.55
2022-09-12T05:09:39.313Z,11.52
2022-09-12T05:12:10.922Z,11.44
2022-09-12T05:14:42.319Z,11.49
2022-09-12T05:17:13.804Z,11.63
2022-09-12T05:19:45.292Z,11.82
2022-09-12T05:22:16.581Z,11.84
2022-09-12T05:24:50.732Z,11.72
2022-09-12T05:27:22.197Z,11.72
2022-09-12T05:29:53.765Z,11.89
2022-09-12T05:32:25.197Z,11.93
2022-09-12T05:34:56.572Z,11.97
2022-09-12T05:37:29.122Z,12.08
2022-09-12T05:40:00.632Z,11.96
2022-09-12T05:42:34.501Z,12.09
2022-09-12T05:45:06.594Z,12.11
2022-09-12T05:47:38.040Z,12.04
2022-09-12T05:50:12.695Z,11.91
2022-09-12T05:52:42.514Z,11.89
2022-09-12T05:55:15.457Z,11.98
2022-09-12T05:57:48.859Z,12.00
2022-09-12T06:00:22.287Z,12.16
2022-09-12T06:02:58.245Z,12.37
2022-09-12T06:05:29.800Z,12.45
2022-09-12T06:08:01.193Z,12.46
2022-09-12T06:10:32.596Z,12.47
2022-09-12T06:13:04.628Z,12.57
2022-09-12T06:15:36.407Z,12.64
2022-09-12T06:18:08.085Z,12.84
2022-09-12T06:20:40.560Z,12.91
2022-09-12T06:23:12.063Z,12.76
2022-09-12T06:25:50.506Z,12.78
2022-09-12T06:28:23.383Z,12.80
2022-09-12T06:30:55.268Z,12.87
2022-09-12T06:33:27.319Z,12.98
2022-09-12T06:36:03.845Z,13.04
2022-09-12T06:38:35.997Z,13.15
2022-09-12T06:41:09.637Z,13.30
2022-09-12T06:43:41.770Z,13.45
2022-09-12T06:46:13.908Z,13.48
2022-09-12T06:48:47.245Z,13.53
2022-09-12T06:51:20.344Z,13.59
2022-09-12T06:53:52.935Z,13.66
2022-09-12T06:56:26.755Z,13.79
2022-09-12T06:59:00.490Z,13.87
2022-09-12T07:01:33.394Z,13.94
2022-09-12T07:04:06.081Z,13.95
2022-09-12T07:06:42.447Z,13.95
2022-09-12T07:09:16.652Z,14.00
2022-09-12T07:11:49.084Z,14.08
2022-09-12T07:14:20.579Z,14.01
2022-09-12T07:16:52.015Z,13.96
2022-09-12T07:19:24.968Z,14.12
2022-09-12T07:21:58.819Z,14.17
2022-09-12T07:24:30.530Z,14.22
2022-09-12T07:27:02.077Z,14.17
2022-09-12T07:29:36.968Z,14.28
2022-09-12T07:32:10.158Z,14.47
2022-09-12T07:34:41.727Z,14.60
2022-09-12T07:37:12.989Z,14.55
2022-09-12T07:39:44.466Z,14.57
2022-09-12T07:42:15.965Z,14.76
2022-09-12T07:44:47.379Z,14.70
2022-09-12T07:47:19.617Z,14.65
2022-09-12T07:49:51.121Z,14.74
2022-09-12T07:52:22.676Z,14.76
2022-09-12T07:54:54.421Z,14.71
2022-09-12T07:57:27.181Z,14.78
2022-09-12T08:00:36.152Z,14.83
2022-09-12T08:03:07.673Z,14.95
2022-09-12T08:05:39.168Z,14.94
2022-09-12T08:08:10.792Z,14.98
2022-09-12T08:10:42.356Z,14.97
2022-09-12T08:13:13.816Z,15.04
2022-09-12T08:15:45.083Z,15.04
2022-09-12T08:18:16.462Z,15.03
2022-09-12T08:20:48.019Z,15.17
2022-09-12T08:23:23.724Z,15.25
2022-09-12T08:25:57.015Z,15.27
2022-09-12T08:28:29.078Z,15.31
2022-09-12T08:31:04.307Z,15.27
2022-09-12T08:33:36.459Z,15.39
2022-09-12T08:36:14.455Z,15.57
2022-09-12T08:38:47.853Z,15.61
2022-09-12T08:41:28.712Z,15.69
2022-09-12T08:44:19.565Z,15.75
2022-09-12T08:47:07.147Z,15.80
2022-09-12T08:49:47.149Z,15.95
2022-09-12T08:52:23.442Z,16.09
2022-09-12T08:54:56.725Z,16.20
2022-09-12T08:57:28.502Z,16.16
2022-09-12T09:00:00.938Z,16.14
2022-09-12T09:06:41.168Z,16.57
2022-09-12T09:09:32.183Z,16.71
2022-09-12T09:12:22.904Z,16.61
2022-09-12T09:15:19.335Z,16.85
2022-09-12T09:18:00.507Z,17.05
2022-09-12T09:20:46.002Z,17.11
2022-09-12T09:23:36.067Z,17.10
2022-09-12T09:29:43.080Z,17.12
2022-09-12T09:32:19.953Z,17.13
2022-09-12T09:34:53.041Z,17.25
2022-09-12T09:37:33.142Z,17.25
2022-09-12T09:40:19.365Z,17.18
2022-09-12T09:42:58.290Z,17.15
2022-09-12T09:45:30.939Z,17.22
2022-09-12T09:48:12.757Z,17.21
2022-09-12T09:50:44.577Z,17.30
2022-09-12T09:53:28.069Z,17.40
2022-09-12T09:56:02.059Z,17.39
2022-09-12T09:58:35.227Z,17.34
2022-09-12T10:01:13.930Z,17.27
2022-09-12T10:03:51.898Z,17.25
2022-09-12T10:06:32.631Z,17.36
2022-09-12T10:09:22.432Z,17.43
2022-09-12T10:11:56.192Z,17.36
2022-09-12T10:14:38.069Z,17.37
2022-09-12T10:17:34.509Z,17.47
2022-09-12T10:20:26.901Z,17.55
2022-09-12T10:22:58.601Z,17.50
2022-09-12T10:25:30.383Z,17.52
2022-09-12T10:28:03.424Z,17.50
2022-09-12T10:30:35.315Z,17.51
2022-09-12T10:33:13.269Z,17.42
2022-09-12T10:35:50.246Z,17.49
2022-09-12T10:38:28.344Z,17.53
2022-09-12T10:41:03.877Z,17.51
2022-09-12T10:43:40.359Z,17.46
2022-09-12T10:46:32.910Z,17.44
2022-09-12T10:49:25.993Z,17.48
2022-09-12T10:52:22.171Z,17.50
2022-09-12T10:54:53.743Z,17.59
2022-09-12T10:57:53.039Z,17.65
2022-09-12T11:00:28.208Z,17.80
2022-09-12T11:03:17.647Z,17.74
2022-09-12T11:05:56.934Z,17.84
2022-09-12T11:08:45.414Z,17.92
2022-09-12T11:11:35.014Z,18.03
2022-09-12T11:14:25.027Z,17.84
2022-09-12T11:17:10.624Z,17.84
2022-09-12T11:20:05.452Z,18.00
2022-09-12T11:22:51.212Z,18.09
2022-09-12T11:25:35.464Z,18.16
2022-09-12T11:28:27.381Z,18.25
2022-09-12T11:31:16.410Z,18.29
2022-09-12T11:33:49.426Z,18.35
2022-09-12T11:36:33.188Z,18.40
2022-09-12T11:39:14.834Z,18.40
2022-09-12T11:41:51.526Z,18.47
2022-09-12T11:44:28.819Z,18.34
2022-09-12T11:47:02.808Z,18.33
2022-09-12T11:49:40.180Z,18.43
2022-09-12T11:52:17.629Z,18.45
2022-09-12T11:54:54.033Z,18.51
2022-09-12T11:57:32.673Z,18.58
2022-09-12T12:00:09.139Z,18.69
2022-09-12T12:02:49.881Z,18.66
2022-09-12T12:05:25.937Z,18.80
2022-09-12T12:07:59.313Z,18.83
2022-09-12T12:10:37.452Z,18.85
2022-09-12T12:13:20.697Z,18.85
2022-09-12T12:15:57.808Z,18.83
2022-09-12T12:18:31.372Z,18.92
2022-09-12T12:21:33.996Z,18.92
2022-09-12T12:24:17.343Z,18.93
2022-09-12T12:27:03.495Z,18.86
2022-09-12T12:29:44.279Z,18.83
2022-09-12T12:32:26.911Z,18.77
2022-09-12T12:35:41.026Z,18.79
2022-09-12T12:38:32.868Z,18.81
2022-09-12T12:41:41.119Z,18.85
2022-09-12T12:44:54.150Z,18.88
2022-09-12T12:47:28.402Z,19.09
2022-09-12T12:50:03.065Z,19.26
2022-09-12T12:52:49.272Z,19.28
2022-09-12T12:55:26.718Z,19.31
2022-09-12T12:57:59.619Z,19.26
2022-09-12T13:00:39.644Z,19.10
2022-09-12T13:03:24.446Z,19.12
2022-09-12T13:06:01.405Z,19.28
2022-09-12T13:08:35.286Z,19.29
2022-09-12T13:11:13.586Z,19.27
2022-09-12T13:13:51.981Z,19.39
2022-09-12T13:16:36.649Z,19.37
2022-09-12T13:19:18.003Z,19.51
2022-09-12T13:22:02.095Z,19.65
2022-09-12T13:24:33.518Z,19.73
2022-09-12T13:27:17.591Z,19.68
2022-09-12T13:29:51.298Z,19.66
2022-09-12T13:32:23.119Z,19.60
2022-09-12T13:35:12.108Z,19.30
2022-09-12T13:37:51.529Z,19.13
2022-09-12T13:40:34.717Z,19.04
2022-09-12T13:43:26.096Z,18.85
2022-09-12T13:45:57.630Z,18.78
2022-09-12T13:48:29.333Z,18.74
2022-09-12T13:51:02.651Z,18.80
2022-09-12T13:53:42.556Z,18.86
2022-09-12T13:56:19.677Z,19.10
2022-09-12T13:58:59.159Z,19.26
2022-09-12T14:01:42.587Z,19.36
2022-09-12T14:04:37.374Z,19.28
2022-09-12T14:07:15.625Z,19.25
2022-09-12T14:09:54.160Z,19.37
2022-09-12T14:12:31.321Z,19.43
2022-09-12T14:15:03.358Z,19.40
2022-09-12T14:17:39.908Z,19.33
2022-09-12T14:20:18.841Z,19.36
2022-09-12T14:22:51.293Z,19.55
2022-09-12T14:25:25.457Z,19.51
2022-09-12T14:27:58.921Z,19.41
2022-09-12T14:30:32.302Z,19.33
2022-09-12T14:33:18.309Z,19.24
2022-09-12T14:35:51.670Z,19.15
2022-09-12T14:38:33.385Z,19.19
2022-09-12T14:41:08.439Z,19.19
2022-09-12T14:43:42.632Z,19.25
2022-09-12T14:46:24.166Z,19.32
2022-09-12T14:49:00.868Z,19.23
2022-09-12T14:51:38.179Z,19.23
2022-09-12T14:54:36.453Z,19.23
2022-09-12T14:57:29.151Z,19.34
2022-09-12T15:00:11.623Z,19.38
2022-09-12T15:02:44.807Z,19.35
2022-09-12T15:05:22.205Z,19.27
2022-09-12T15:07:59.582Z,19.19
2022-09-12T15:10:33.698Z,19.23
2022-09-12T15:13:26.109Z,19.28
2022-09-12T15:15:59.446Z,19.27
2022-09-12T15:18:31.556Z,19.30
2022-09-12T15:21:06.393Z,19.24
2022-09-12T15:23:42.040Z,19.24
2022-09-12T15:26:17.609Z,19.22
2022-09-12T15:28:49.588Z,19.17
2022-09-12T15:31:26.928Z,19.17
2022-09-12T15:33:59.715Z,19.12
2022-09-12T15:36:32.148Z,19.06
2022-09-12T15:39:03.772Z,19.05
2022-09-12T15:41:37.352Z,19.03
2022-09-12T15:44:12.592Z,19.03
2022-09-12T15:46:44.233Z,19.01
2022-09-12T15:49:15.911Z,18.98
2022-09-12T15:51:47.423Z,19.07
2022-09-12T15:54:21.198Z,19.09
2022-09-12T15:56:53.136Z,19.09
2022-09-12T15:59:24.647Z,19.02
2022-09-12T16:01:56.087Z,19.07
2022-09-12T16:04:30.713Z,19.10
2022-09-12T16:07:02.148Z,19.11
2022-09-12T16:09:34.550Z,19.20
2022-09-12T16:12:06.125Z,19.16
2022-09-12T16:14:37.637Z,19.03
2022-09-12T16:17:09.529Z,18.95
2022-09-12T16:19:41.146Z,18.81
2022-09-12T16:22:12.983Z,18.79
2022-09-12T16:24:44.819Z,18.77
2022-09-12T16:27:18.021Z,18.67
2022-09-12T16:29:49.665Z,18.58
2022-09-12T16:32:21.168Z,18.63
2022-09-12T16:34:52.609Z,18.71
2022-09-12T16:37:24.070Z,18.76
2022-09-12T16:39:55.993Z,18.70
2022-09-12T16:42:27.520Z,18.50
2022-09-12T16:44:58.946Z,18.37
2022-09-12T16:47:32.559Z,18.33
2022-09-12T16:50:03.950Z,18.29
2022-09-12T16:52:35.724Z,18.31
2022-09-12T16:55:08.475Z,18.25
2022-09-12T16:57:40.331Z,18.18
2022-09-12T17:00:14.397Z,18.24
2022-09-12T17:02:45.954Z,18.37
2022-09-12T17:05:17.984Z,18.40
2022-09-12T17:07:49.628Z,18.30
2022-09-12T17:10:21.265Z,18.32
2022-09-12T17:12:52.548Z,18.46
2022-09-12T17:15:23.929Z,18.32
2022-09-12T17:17:55.328Z,18.27
2022-09-12T17:20:26.870Z,18.41
2022-09-12T17:22:59.094Z,18.45
2022-09-12T17:25:30.733Z,18.41
2022-09-12T17:28:05.475Z,18.41
2022-09-12T17:30:39.425Z,18.35
2022-09-12T17:33:11.616Z,18.31
2022-09-12T17:35:43.755Z,18.20
2022-09-12T17:38:19.366Z,18.21
2022-09-12T17:40:59.376Z,18.22
2022-09-12T17:43:32.370Z,18.16
2022-09-12T17:46:04.053Z,18.16
2022-09-12T17:48:35.596Z,18.06
2022-09-12T17:51:13.788Z,18.01
2022-09-12T17:53:45.798Z,17.98
2022-09-12T17:56:17.603Z,17.94
2022-09-12T17:58:50.252Z,17.88
2022-09-12T18:01:39.493Z,17.84
2022-09-12T18:04:11.843Z,17.77
2022-09-12T18:06:48.875Z,17.76
2022-09-12T18:09:23.263Z,17.72
2022-09-12T18:11:55.933Z,17.84
2022-09-12T18:14:29.799Z,17.81
2022-09-12T18:17:01.950Z,17.81
2022-09-12T18:19:34.512Z,17.79
2022-09-12T18:22:07.705Z,17.77
2022-09-12T18:24:40.476Z,17.78
2022-09-12T18:27:12.524Z,17.76
2022-09-12T18:29:55.144Z,17.82
2022-09-12T18:32:36.098Z,17.79
2022-09-12T18:35:09.222Z,17.89
2022-09-12T18:37:41.572Z,17.94
2022-09-12T18:40:14.393Z,17.85
2022-09-12T18:42:46.627Z,17.85
2022-09-12T18:45:18.522Z,17.80
2022-09-12T18:47:50.334Z,17.74
2022-09-12T18:50:23.869Z,17.77
2022-09-12T18:52:59.777Z,17.76
2022-09-12T18:55:32.441Z,17.91
2022-09-12T18:58:04.429Z,18.00
2022-09-12T19:00:37.030Z,17.94
2022-09-12T19:03:09.115Z,17.92
2022-09-12T19:05:41.809Z,17.88
2022-09-12T19:08:13.780Z,17.77
2022-09-12T19:10:45.754Z,17.65
2022-09-12T19:13:18.535Z,17.55
2022-09-12T19:15:50.736Z,17.47
2022-09-12T19:18:22.511Z,17.45
2022-09-12T19:20:57.192Z,17.43
2022-09-12T19:23:29.421Z,17.45
2022-09-12T19:26:04.566Z,17.44
2022-09-12T19:28:36.990Z,17.25
2022-09-12T19:31:11.166Z,17.10
2022-09-12T19:33:45.230Z,17.17
2022-09-12T19:39:12.458Z,17.45
2022-09-12T19:41:44.513Z,17.41
2022-09-12T19:44:16.419Z,17.19
2022-09-12T19:46:48.174Z,17.02
2022-09-12T19:49:19.720Z,17.04
2022-09-12T19:51:51.274Z,17.04
2022-09-12T19:54:23.023Z,16.99
2022-09-12T19:56:54.807Z,16.97
2022-09-12T19:59:26.699Z,17.03
2022-09-12T20:01:58.412Z,17.05
2022-09-12T20:04:30.181Z,17.03
2022-09-12T20:07:01.955Z,17.04
2022-09-12T20:09:35.764Z,17.02
2022-09-12T20:12:07.934Z,17.15
2022-09-12T20:14:39.240Z,17.26
2022-09-12T20:17:11.053Z,17.19
2022-09-12T20:19:42.698Z,17.17
2022-09-12T20:22:14.337Z,17.29
2022-09-12T20:24:46.072Z,17.33
2022-09-12T20:27:17.681Z,17.25
2022-09-12T20:29:49.310Z,17.14
2022-09-12T20:32:20.846Z,17.08
2022-09-12T20:34:52.395Z,16.97
2022-09-12T20:37:24.359Z,16.88
2022-09-12T20:39:57.579Z,16.79
2022-09-12T20:42:29.956Z,16.70
2022-09-12T20:45:01.408Z,16.79
2022-09-12T20:47:32.890Z,16.79
2022-09-12T20:50:04.518Z,16.76
2022-09-12T20:52:36.094Z,16.80
2022-09-12T20:55:08.591Z,16.82
2022-09-12T20:57:39.993Z,16.71
2022-09-12T21:00:14.334Z,16.61
2022-09-12T21:02:45.953Z,16.54
2022-09-12T21:05:17.760Z,16.40
2022-09-12T21:07:49.191Z,16.29
2022-09-12T21:10:20.749Z,16.08
2022-09-12T21:12:53.825Z,15.99
2022-09-12T21:15:25.267Z,16.03
2022-09-12T21:17:57.005Z,16.05
2022-09-12T21:20:28.366Z,15.99
2022-09-12T21:23:00.108Z,15.87
2022-09-12T21:25:32.786Z,15.86
2022-09-12T21:28:04.702Z,15.85
2022-09-12T21:30:36.102Z,15.84
2022-09-12T21:33:07.878Z,15.78
2022-09-12T21:35:39.325Z,15.65
2022-09-12T21:38:10.795Z,15.56
2022-09-12T21:40:42.166Z,15.59
2022-09-12T21:43:14.095Z,15.62
2022-09-12T21:45:45.799Z,15.55
2022-09-12T21:48:17.293Z,15.53
2022-09-12T21:50:53.373Z,15.35
2022-09-12T21:53:24.720Z,15.19
2022-09-12T21:55:56.181Z,15.07
2022-09-12T21:58:30.800Z,15.03
2022-09-12T22:01:03.644Z,15.05
2022-09-12T22:03:35.584Z,15.10
2022-09-12T22:06:08.841Z,15.06
2022-09-12T22:08:40.712Z,15.09
2022-09-12T22:11:13.428Z,15.03
2022-09-12T22:13:45.517Z,14.92
2022-09-12T22:16:18.211Z,14.79
2022-09-12T22:18:50.992Z,14.85
2022-09-12T22:21:24.590Z,14.87
2022-09-12T22:24:13.301Z,14.81
2022-09-12T22:26:46.438Z,14.70
2022-09-12T22:29:19.357Z,14.66
2022-09-12T22:31:51.008Z,14.55
2022-09-12T22:34:22.573Z,14.50
2022-09-12T22:36:53.926Z,14.43
2022-09-12T22:39:25.819Z,14.34
2022-09-12T22:41:57.202Z,14.39
2022-09-12T22:44:28.511Z,14.39
2022-09-12T22:47:00.756Z,14.35
2022-09-12T22:49:32.122Z,14.42
2022-09-12T22:52:04.121Z,14.30
2022-09-12T22:54:35.554Z,14.14
2022-09-12T22:57:07.274Z,14.11
2022-09-12T22:59:39.278Z,13.95
2022-09-12T23:02:10.626Z,13.79
2022-09-12T23:04:41.972Z,13.87
2022-09-12T23:07:13.359Z,13.83
2022-09-12T23:09:46.371Z,13.82
2022-09-12T23:12:17.627Z,13.94
2022-09-12T23:14:49.132Z,14.00
2022-09-12T23:17:20.536Z,13.72
2022-09-12T23:19:52.606Z,13.61
2022-09-12T23:22:24.021Z,13.62
2022-09-12T23:24:55.382Z,13.52
2022-09-12T23:27:29.503Z,13.32
2022-09-12T23:30:00.870Z,13.27
2022-09-12T23:32:33.572Z,13.13
2022-09-12T23:35:05.665Z,13.06
2022-09-12T23:37:37.001Z,13.18
2022-09-12T23:40:11.411Z,13.32
2022-09-12T23:42:42.854Z,13.33
2022-09-12T23:45:14.605Z,13.30
2022-09-12T23:47:46.020Z,13.17
2022-09-12T23:50:17.516Z,13.22
2022-09-12T23:52:48.959Z,13.16
2022-09-12T23:55:20.479Z,12.95
2022-09-12T23:57:52.044Z,12.87
